Time;durP1;ratioP1;P1;durP2;ratioP2;P2;SDS_P1;SDS_P2;PMS_P1;PMS_P2;Temp;Humidity;BMP_temperature;BMP_pressure;BME280_temperature;BME280_humidity;BME280_pressure;Samples;Min_cycle;Max_cycle;Signal;HPM_P1;HPM_P2
2022/10/15 00:00:08;;;;;;;29.50;17.77;;;;;;;11.90;100.00;100091.31;4932371;29;20024;-79
2022/10/15 00:02:39;;;;;;;30.90;17.63;;;;;;;11.94;100.00;100091.84;4931776;29;20124;-80
2022/10/15 00:05:10;;;;;;;29.33;17.90;;;;;;;12.08;100.00;100106.03;4918315;29;20046;-80
2022/10/15 00:07:40;;;;;;;30.35;18.30;;;;;;;11.78;100.00;100059.69;4932948;29;20024;-81
2022/10/15 00:10:05;;;;;;;30.90;18.35;;;;;;;12.07;100.00;100106.53;4931259;29;20087;-82
2022/10/15 00:12:32;;;;;;;28.38;17.10;;;;;;;12.08;100.00;100108.09;4930709;29;20059;-79
2022/10/15 00:14:58;;;;;;;26.60;16.70;;;;;;;12.06;100.00;100107.84;4948099;29;20019;-80
2022/10/15 00:17:25;;;;;;;33.38;17.27;;;;;;;12.02;100.00;100104.41;4930723;29;20078;-80
2022/10/15 00:19:53;;;;;;;33.72;17.48;;;;;;;11.94;100.00;100098.38;4929198;29;20078;-80
2022/10/15 00:22:18;;;;;;;31.40;16.83;;;;;;;11.87;100.00;100098.03;4945752;29;20020;-81
2022/10/15 00:24:43;;;;;;;31.20;17.83;;;;;;;11.77;100.00;100094.56;4947294;29;20095;-79
2022/10/15 00:27:10;;;;;;;36.85;18.05;;;;;;;11.65;100.00;100092.91;4952021;29;20032;-81
2022/10/15 00:29:35;;;;;;;31.80;18.38;;;;;;;11.60;100.00;100091.56;4914485;29;20043;-80
2022/10/15 00:32:03;;;;;;;31.77;18.25;;;;;;;11.49;100.00;100090.63;4947513;29;20016;-79
2022/10/15 00:34:32;;;;;;;31.15;18.48;;;;;;;11.29;100.00;100072.25;4928140;29;20028;-80
2022/10/15 00:37:06;;;;;;;31.35;19.10;;;;;;;10.80;100.00;100013.16;4946354;29;20038;-80
2022/10/15 00:39:35;;;;;;;31.60;19.63;;;;;;;11.03;100.00;100057.09;4951223;29;20051;-79
2022/10/15 00:42:09;;;;;;;35.33;19.25;;;;;;;11.01;100.00;100064.59;4916412;29;20027;-79
2022/10/15 00:45:01;;;;;;;37.10;19.92;;;;;;;11.01;100.00;100079.69;4917956;29;20028;-81
2022/10/15 00:47:40;;;;;;;34.38;19.33;;;;;;;10.91;100.00;100078.25;4933422;29;20044;-80
2022/10/15 00:50:32;;;;;;;31.00;17.38;;;;;;;10.80;100.00;100086.69;4951364;29;20031;-80
2022/10/15 00:53:08;;;;;;;29.42;17.38;;;;;;;10.68;100.00;100077.19;4928857;29;20103;-80
2022/10/15 00:55:36;;;;;;;32.97;20.30;;;;;;;10.61;100.00;100083.34;4937554;29;20059;-80
2022/10/15 00:58:08;;;;;;;32.17;18.90;;;;;;;10.54;100.00;100083.75;4926601;29;20485;-80
2022/10/15 01:00:33;;;;;;;;;;;;;;;10.44;100.00;100079.44;4910542;29;20028;-79
2022/10/15 01:03:03;;;;;;;31.92;18.98;;;;;;;10.36;100.00;100084.78;4958375;29;19941;-79
2022/10/15 01:05:29;;;;;;;32.13;18.73;;;;;;;10.31;100.00;100074.06;4958117;29;20024;-79
2022/10/15 01:07:56;;;;;;;35.10;20.13;;;;;;;10.18;100.00;100055.72;4940628;29;20039;-80
2022/10/15 01:10:25;;;;;;;36.20;20.50;;;;;;;10.15;100.00;100063.19;4938384;29;20056;-81
2022/10/15 01:12:51;;;;;;;37.03;19.23;;;;;;;10.05;100.00;100058.88;4900229;29;20027;-79
2022/10/15 01:15:38;;;;;;;38.20;21.35;;;;;;;10.00;100.00;100065.28;4954107;29;20062;-80
2022/10/15 01:18:09;;;;;;;38.65;21.15;;;;;;;9.90;100.00;100052.41;4958974;29;20031;-80
2022/10/15 01:20:43;;;;;;;35.50;20.38;;;;;;;9.85;100.00;100059.59;4941839;29;20024;-81
2022/10/15 01:23:41;;;;;;;38.35;21.38;;;;;;;9.78;100.00;100048.59;4956751;29;20023;-80
2022/10/15 01:26:25;;;;;;;37.38;21.35;;;;;;;9.70;100.00;100058.78;4940789;29;20028;-79
2022/10/15 01:29:34;;;;;;;38.53;20.67;;;;;;;9.48;100.00;100024.19;4952700;29;20051;-81
2022/10/15 01:32:18;;;;;;;38.63;22.50;;;;;;;9.56;100.00;100046.13;4949864;29;20083;-80
2022/10/15 01:35:25;;;;;;;39.70;22.48;;;;;;;9.49;100.00;100031.47;4915608;29;20042;-80
2022/10/15 01:38:08;;;;;;;40.30;22.02;;;;;;;9.38;100.00;100031.28;4946704;29;20020;-80
2022/10/15 01:40:38;;;;;;;41.45;22.27;;;;;;;9.35;100.00;100038.72;4931457;29;20066;-80
2022/10/15 01:43:52;;;;;;;42.95;20.90;;;;;;;9.31;100.00;100032.44;4916457;29;20459;-81
2022/10/15 01:46:35;;;;;;;47.40;24.13;;;;;;;9.25;100.00;100029.47;4949757;29;20063;-81
2022/10/15 01:49:02;;;;;;;41.15;21.60;;;;;;;9.19;100.00;100005.03;4919292;29;20028;-81
2022/10/15 01:51:30;;;;;;;41.83;22.33;;;;;;;9.15;100.00;100015.84;4936801;29;20011;-80
2022/10/15 01:54:05;;;;;;;42.13;22.98;;;;;;;9.12;100.00;100020.44;4955282;29;20024;-80
2022/10/15 01:56:31;;;;;;;42.53;21.90;;;;;;;9.04;100.00;100001.38;4923598;29;20019;-81
2022/10/15 01:59:19;;;;;;;42.20;21.70;;;;;;;9.10;100.00;100013.66;4937691;29;20107;-80
2022/10/15 02:01:51;;;;;;;41.25;21.80;;;;;;;9.06;100.00;100013.06;4920593;29;20034;-80
2022/10/15 02:04:39;;;;;;;38.58;20.83;;;;;;;9.03;100.00;100009.13;4935219;29;20047;-81
2022/10/15 02:07:23;;;;;;;34.95;21.23;;;;;;;8.85;100.00;99982.88;4937361;29;20023;-81
2022/10/15 02:09:49;;;;;;;36.00;21.58;;;;;;;8.99;100.00;100005.69;4954639;29;20039;-82
2022/10/15 02:12:45;;;;;;;37.03;21.15;;;;;;;8.98;100.00;100003.31;4934777;29;20169;-80
2022/10/15 02:15:17;;;;;;;37.35;21.77;;;;;;;8.98;100.00;99994.78;4932284;29;20035;-80
2022/10/15 02:17:54;;;;;;;41.08;21.27;;;;;;;8.88;100.00;99985.53;4936195;29;20032;-79
2022/10/15 02:20:23;;;;;;;38.42;20.65;;;;;;;8.92;100.00;99991.03;4938329;29;20040;-80
2022/10/15 02:23:00;;;;;;;38.65;20.38;;;;;;;8.91;100.00;99983.75;4921983;29;20031;-80
2022/10/15 02:25:27;;;;;;;38.60;20.00;;;;;;;8.97;100.00;99991.13;4921917;29;20028;-79
2022/10/15 02:27:54;;;;;;;38.15;20.15;;;;;;;8.98;100.00;99989.06;4937247;29;20103;-80
2022/10/15 02:30:20;;;;;;;39.72;21.05;;;;;;;8.98;100.00;99971.97;4922686;29;20052;-79
2022/10/15 02:32:51;;;;;;;34.75;20.00;;;;;;;8.99;100.00;99971.50;4942767;29;20003;-80
2022/10/15 02:35:18;;;;;;;40.85;19.80;;;;;;;9.03;100.00;99968.44;4958770;29;20079;-80
2022/10/15 02:37:55;;;;;;;34.08;19.42;;;;;;;9.03;100.00;99977.78;4941778;29;20023;-81
2022/10/15 02:40:35;;;;;;;32.60;18.80;;;;;;;9.01;100.00;99973.84;4942349;29;20016;-81
2022/10/15 02:43:05;;;;;;;35.45;19.75;;;;;;;9.01;100.00;99968.94;4924952;29;20035;-82
2022/10/15 02:45:31;;;;;;;43.13;20.45;;;;;;;9.01;100.00;99966.06;4937540;29;20028;-82
2022/10/15 02:47:58;;;;;;;36.83;20.02;;;;;;;8.94;100.00;99972.19;4937279;29;20058;-81
2022/10/15 02:50:23;;;;;;;35.45;19.77;;;;;;;8.99;100.00;99974.34;4936295;29;20039;-80
2022/10/15 02:52:56;;;;;;;35.97;20.05;;;;;;;8.91;100.00;99958.91;4935129;29;20035;-81
2022/10/15 02:55:21;;;;;;;34.13;18.95;;;;;;;8.98;100.00;99964.22;4941727;29;20027;-81
2022/10/15 02:57:48;;;;;;;36.30;20.80;;;;;;;9.02;100.00;99961.94;4958454;29;20042;-80
2022/10/15 03:00:14;;;;;;;34.08;18.33;;;;;;;8.99;100.00;99957.25;4942929;29;20039;-80
2022/10/15 03:02:41;;;;;;;33.75;18.67;;;;;;;9.04;100.00;99967.16;4926126;29;20031;-81
2022/10/15 03:05:09;;;;;;;36.63;20.70;;;;;;;8.99;100.00;99945.84;4942127;29;20080;-81
2022/10/15 03:07:35;;;;;;;37.83;20.80;;;;;;;9.00;100.00;99953.09;4941152;29;20091;-80
2022/10/15 03:10:00;;;;;;;37.05;19.42;;;;;;;8.96;100.00;99943.97;4926378;29;20055;-80
2022/10/15 03:12:27;;;;;;;36.50;18.95;;;;;;;8.99;100.00;99940.16;4910272;29;20130;-80
2022/10/15 03:14:53;;;;;;;36.78;20.08;;;;;;;9.05;100.00;99928.84;4941434;29;20416;-80
2022/10/15 03:17:19;;;;;;;42.03;20.52;;;;;;;8.99;100.00;99916.56;4924591;29;20055;-80
2022/10/15 03:19:46;;;;;;;33.53;20.75;;;;;;;9.01;100.00;99929.03;4939408;29;20039;-79
2022/10/15 03:22:11;;;;;;;38.65;20.05;;;;;;;9.01;100.00;99922.53;4957782;29;20047;-80
2022/10/15 03:24:40;;;;;;;39.80;20.23;;;;;;;9.00;100.00;99927.44;4938704;29;20376;-80
2022/10/15 03:27:05;;;;;;;33.05;18.88;;;;;;;8.96;100.00;99926.06;4955508;29;20023;-80
2022/10/15 03:29:31;;;;;;;36.15;20.90;;;;;;;9.01;100.00;99933.94;4956667;29;20029;-80
2022/10/15 03:32:01;;;;;;;35.20;19.73;;;;;;;8.99;100.00;99920.19;4955421;29;20063;-81
2022/10/15 03:34:26;;;;;;;37.90;20.30;;;;;;;9.02;100.00;99929.81;4907912;29;20425;-80
2022/10/15 03:36:54;;;;;;;38.70;21.50;;;;;;;8.99;100.00;99925.09;4955763;29;20043;-80
2022/10/15 03:39:20;;;;;;;42.30;20.25;;;;;;;8.99;100.00;99913.72;4956399;29;20070;-79
2022/10/15 03:41:45;;;;;;;36.75;19.90;;;;;;;9.03;100.00;99917.16;4957456;29;20059;-80
2022/10/15 03:44:11;;;;;;;35.47;19.77;;;;;;;9.01;100.00;99911.13;4942001;29;20035;-80
2022/10/15 03:46:37;;;;;;;36.83;19.83;;;;;;;9.06;100.00;99919.00;4937328;29;20056;-80
2022/10/15 03:49:03;;;;;;;34.97;19.52;;;;;;;8.94;100.00;99891.59;4922598;29;20032;-80
2022/10/15 03:51:28;;;;;;;35.72;18.48;;;;;;;9.08;100.00;99905.84;4936979;29;20079;-80
2022/10/15 03:53:54;;;;;;;35.08;19.90;;;;;;;9.09;100.00;99913.13;4909630;29;20032;-80
2022/10/15 03:56:20;;;;;;;33.88;19.15;;;;;;;9.05;100.00;99912.50;4941577;29;20026;-80
2022/10/15 03:58:46;;;;;;;35.67;18.23;;;;;;;9.08;100.00;99920.09;4942495;29;20032;-80
2022/10/15 04:01:14;;;;;;;35.65;18.85;;;;;;;9.04;100.00;99896.72;4941435;29;20063;-80
2022/10/15 04:03:40;;;;;;;37.05;20.85;;;;;;;9.04;100.00;99898.78;4940770;29;20087;-80
2022/10/15 04:06:06;;;;;;;36.88;19.88;;;;;;;9.13;100.00;99910.84;4925256;29;20028;-80
2022/10/15 04:08:32;;;;;;;39.55;20.90;;;;;;;9.06;100.00;99901.91;4925718;29;20051;-81
2022/10/15 04:11:06;;;;;;;40.00;21.67;;;;;;;9.05;100.00;99895.41;4924413;29;20032;-81
2022/10/15 04:13:32;;;;;;;38.17;20.48;;;;;;;9.05;100.00;99897.50;4939890;29;20032;-81
2022/10/15 04:16:00;;;;;;;36.63;21.65;;;;;;;9.07;100.00;99894.94;4938592;29;20036;-80
2022/10/15 04:18:26;;;;;;;34.00;18.77;;;;;;;8.99;100.00;99880.31;4938744;29;20183;-80
2022/10/15 04:20:54;;;;;;;40.40;20.30;;;;;;;9.12;100.00;99897.88;4939412;29;20084;-80
2022/10/15 04:23:21;;;;;;;35.28;21.52;;;;;;;9.13;100.00;99888.06;4939137;29;20036;-81
2022/10/15 04:25:47;;;;;;;42.70;21.48;;;;;;;9.16;100.00;99886.25;4937847;29;20111;-81
2022/10/15 04:28:12;;;;;;;42.30;21.92;;;;;;;9.21;100.00;99891.28;4938137;29;20572;-81
2022/10/15 04:30:38;;;;;;;43.22;22.00;;;;;;;9.15;100.00;99870.47;4937665;29;20072;-81
2022/10/15 04:33:04;;;;;;;41.15;21.58;;;;;;;9.19;100.00;99888.94;4937609;29;20060;-82
2022/10/15 04:35:33;;;;;;;42.67;22.25;;;;;;;9.26;100.00;99888.50;4937003;29;20040;-81
2022/10/15 04:38:03;;;;;;;34.85;20.55;;;;;;;9.18;100.00;99870.25;4938358;29;20036;-81
2022/10/15 04:40:32;;;;;;;39.28;21.60;;;;;;;9.22;100.00;99890.78;4920535;29;20028;-81
2022/10/15 04:43:02;;;;;;;40.13;21.27;;;;;;;9.33;100.00;99895.88;4937680;29;20134;-81
2022/10/15 04:45:43;;;;;;;40.25;21.80;;;;;;;9.39;100.00;99887.41;4936127;29;20035;-80
2022/10/15 04:48:10;;;;;;;39.25;21.05;;;;;;;9.31;100.00;99869.13;4939585;29;20079;-81
2022/10/15 04:50:35;;;;;;;36.35;18.92;;;;;;;9.43;100.00;99888.78;4925082;29;20024;-83
2022/10/15 04:53:02;;;;;;;35.63;20.92;;;;;;;9.42;100.00;99883.56;4911761;29;20024;-80
2022/10/15 04:55:36;;;;;;;38.72;21.63;;;;;;;9.40;100.00;99898.31;4912450;29;20416;-81
2022/10/15 04:58:02;;;;;;;39.47;21.05;;;;;;;9.46;100.00;99898.41;4939394;29;20028;-82
2022/10/15 05:00:28;;;;;;;36.40;20.13;;;;;;;9.55;100.00;99901.13;4937531;29;20019;-81
2022/10/15 05:02:54;;;;;;;35.28;20.08;;;;;;;9.54;100.00;99893.88;4921000;29;20018;-82
2022/10/15 05:05:19;;;;;;;33.58;20.00;;;;;;;9.57;100.00;99896.50;4936323;29;20023;-82
2022/10/15 05:07:46;;;;;;;35.22;21.05;;;;;;;9.52;100.00;99887.88;4914427;29;20024;-80
2022/10/15 05:10:11;;;;;;;38.28;21.02;;;;;;;9.64;100.00;99896.09;4913472;29;20079;-80
2022/10/15 05:12:46;;;;;;;36.60;20.45;;;;;;;9.62;100.00;99889.31;4927637;29;20019;-85
2022/10/15 05:15:12;;;;;;;36.10;20.20;;;;;;;9.66;100.00;99896.38;4913717;29;20034;-81
2022/10/15 05:17:46;;;;;;;37.78;20.13;;;;;;;9.63;100.00;99877.41;4946513;29;20047;-84
2022/10/15 05:20:12;;;;;;;40.08;20.80;;;;;;;9.65;100.00;99865.50;4927447;29;20051;-84
2022/10/15 05:22:40;;;;;;;39.83;20.15;;;;;;;9.80;100.00;99871.94;4957109;29;20495;-83
2022/10/15 05:25:12;;;;;;;32.80;19.17;;;;;;;9.84;100.00;99872.53;4941009;29;20046;-83
2022/10/15 05:27:43;;;;;;;39.72;19.85;;;;;;;9.66;100.00;99833.63;4937339;29;20046;-82
2022/10/15 05:30:12;;;;;;;33.75;20.08;;;;;;;9.82;100.00;99862.91;4936556;29;20021;-82
2022/10/15 05:33:04;;;;;;;39.33;20.58;;;;;;;9.83;100.00;99862.41;4954945;29;20035;-83
2022/10/15 05:35:43;;;;;;;40.58;19.88;;;;;;;9.48;100.00;99819.63;4946852;29;20036;-84
2022/10/15 05:38:32;;;;;;;37.72;20.67;;;;;;;9.23;100.00;99760.44;4935165;29;20031;-84
2022/10/15 05:41:25;;;;;;;36.55;19.73;;;;;;;9.26;100.00;99767.97;4941067;29;20043;-84
2022/10/15 05:43:53;;;;;;;39.30;20.40;;;;;;;9.44;100.00;99781.22;4928538;29;20048;-83
2022/10/15 05:46:26;;;;;;;33.53;18.10;;;;;;;9.79;100.00;99838.22;4929455;29;20055;-86
2022/10/15 05:48:55;;;;;;;39.75;20.75;;;;;;;9.18;100.00;99759.09;4950280;29;20133;-86
2022/10/15 05:51:25;;;;;;;35.17;20.65;;;;;;;9.52;100.00;99790.91;4900436;29;20032;-87
2022/10/15 05:53:54;;;;;;;34.08;20.88;;;;;;;9.90;100.00;99832.66;4951612;29;20022;-87
2022/10/15 05:56:25;;;;;;;36.80;18.80;;;;;;;10.23;100.00;99893.03;4940289;29;20022;-87
2022/10/15 05:58:54;;;;;;;36.63;19.63;;;;;;;9.81;100.00;99818.53;4926981;29;20047;-85
2022/10/15 06:01:32;;;;;;;36.28;20.05;;;;;;;10.21;100.00;99863.38;4915314;29;20034;-84
2022/10/15 06:04:06;;;;;;;36.17;18.92;;;;;;;9.97;100.00;99833.00;4950252;29;20059;-88
2022/10/15 06:06:32;;;;;;;35.15;20.05;;;;;;;10.35;100.00;99886.16;4918838;29;20191;-85
2022/10/15 06:09:05;;;;;;;36.65;18.52;;;;;;;10.14;100.00;99844.63;4928721;29;20028;-82
2022/10/15 06:11:32;;;;;;;34.58;19.40;;;;;;;10.40;100.00;99888.28;4930007;29;20473;-84
2022/10/15 06:14:02;;;;;;;38.15;20.63;;;;;;;10.40;100.00;99893.22;4929394;29;20016;-83
2022/10/15 06:16:32;;;;;;;36.55;19.52;;;;;;;10.37;100.00;99875.00;4909524;29;20028;-84
2022/10/15 06:19:05;;;;;;;38.70;19.90;;;;;;;10.56;100.00;99895.47;4929428;29;20028;-86
2022/10/15 06:21:32;;;;;;;36.78;21.00;;;;;;;10.44;100.00;99873.78;4920621;29;20055;-90
2022/10/15 06:24:05;;;;;;;32.33;19.17;;;;;;;10.60;100.00;99898.09;4921313;29;20045;-85
2022/10/15 06:26:34;;;;;;;38.65;19.95;;;;;;;10.55;100.00;99882.47;4908528;29;20020;-88
2022/10/15 06:29:10;;;;;;;38.85;20.40;;;;;;;10.73;100.00;99899.28;4922500;29;20024;-84
2022/10/15 06:31:35;;;;;;;35.90;20.70;;;;;;;10.81;100.00;99891.06;4907030;29;20032;-84
2022/10/15 06:34:01;;;;;;;40.67;20.27;;;;;;;10.80;100.00;99898.06;4923719;29;20088;-89
2022/10/15 06:36:26;;;;;;;37.17;19.48;;;;;;;10.90;100.00;99894.53;4924043;29;20136;-85
2022/10/15 06:38:52;;;;;;;37.13;21.00;;;;;;;11.05;100.00;99908.69;4925391;29;20047;-81
2022/10/15 06:41:18;;;;;;;43.17;20.23;;;;;;;11.15;100.00;99912.97;4928345;29;20028;-77
2022/10/15 06:43:44;;;;;;;34.47;18.90;;;;;;;11.09;100.00;99894.16;4932488;29;20024;-78
2022/10/15 06:46:11;;;;;;;37.20;19.17;;;;;;;11.32;100.00;99918.84;4922892;29;20104;-79
2022/10/15 06:48:37;;;;;;;34.15;19.42;;;;;;;11.46;100.00;99917.13;4935185;29;20008;-79
2022/10/15 06:51:04;;;;;;;34.40;18.20;;;;;;;11.56;100.00;99922.16;4938109;29;20031;-79
2022/10/15 06:53:30;;;;;;;34.05;19.83;;;;;;;11.67;100.00;99918.56;4936759;29;20039;-78
2022/10/15 06:56:00;;;;;;;36.28;20.38;;;;;;;11.75;100.00;99923.31;4933423;29;20040;-79
2022/10/15 06:58:26;;;;;;;36.88;19.08;;;;;;;11.85;100.00;99912.44;4926952;29;20055;-82
2022/10/15 07:00:59;;;;;;;40.83;21.42;;;;;;;11.96;100.00;99909.63;4910271;29;20489;-80
2022/10/15 07:03:24;;;;;;;37.97;21.10;;;;;;;12.25;100.00;99922.81;4907199;29;20197;-79
2022/10/15 07:05:51;;;;;;;35.70;19.95;;;;;;;12.42;100.00;99914.31;4938915;29;20027;-83
2022/10/15 07:08:16;;;;;;;38.25;21.35;;;;;;;12.57;100.00;99909.94;4939810;29;20040;-82
2022/10/15 07:10:43;;;;;;;35.80;20.27;;;;;;;12.90;100.00;99931.41;4923823;29;20043;-82
2022/10/15 07:13:13;;;;;;;38.28;20.67;;;;;;;12.95;100.00;99919.91;4939487;29;20027;-82
2022/10/15 07:15:45;;;;;;;33.22;20.40;;;;;;;13.01;100.00;99905.59;4922802;29;20145;-82
2022/10/15 07:18:13;;;;;;;;;;;;;;;13.21;100.00;99939.78;4920616;29;20023;-82
2022/10/15 07:20:40;;;;;;;35.13;18.40;;;;;;;13.28;100.00;99941.34;4936906;29;19910;-86
2022/10/15 07:23:05;;;;;;;36.20;21.05;;;;;;;13.32;100.00;99942.66;4904132;29;20469;-81
2022/10/15 07:25:31;;;;;;;36.88;20.70;;;;;;;13.17;100.00;99921.25;4920013;29;20039;-80
2022/10/15 07:27:56;;;;;;;39.92;21.65;;;;;;;13.26;100.00;99933.25;4921496;29;20036;-78
2022/10/15 07:30:27;;;;;;;40.50;21.38;;;;;;;13.45;100.00;99950.75;4923100;29;20042;-77
2022/10/15 07:32:55;;;;;;;33.20;18.48;;;;;;;13.53;100.00;99948.97;4905939;29;20507;-78
2022/10/15 07:35:22;;;;;;;40.38;21.80;;;;;;;13.63;100.00;99947.38;4931674;29;20082;-80
2022/10/15 07:37:49;;;;;;;40.65;19.80;;;;;;;13.74;100.00;99949.47;4939985;29;20023;-74
2022/10/15 07:40:17;;;;;;;38.05;21.02;;;;;;;13.88;100.00;99954.94;4943052;29;20362;-79
2022/10/15 07:42:42;;;;;;;41.88;21.13;;;;;;;13.99;100.00;99948.38;4894977;29;20028;-78
2022/10/15 07:45:09;;;;;;;33.20;20.42;;;;;;;14.10;100.00;99947.56;4946239;29;20027;-80
2022/10/15 07:47:34;;;;;;;37.40;19.92;;;;;;;14.28;100.00;99953.50;4946690;29;20052;-83
2022/10/15 07:50:03;;;;;;;37.92;21.08;;;;;;;14.37;100.00;99947.50;4929305;29;20043;-81
2022/10/15 07:52:32;;;;;;;37.22;21.45;;;;;;;14.54;100.00;99949.50;4928624;29;20034;-79
2022/10/15 07:55:03;;;;;;;35.45;20.77;;;;;;;14.75;100.00;99950.75;4931220;29;20034;-79
2022/10/15 07:57:32;;;;;;;33.40;19.40;;;;;;;14.81;100.00;99919.84;4934848;29;20032;-79
2022/10/15 08:00:05;;;;;;;36.47;21.35;;;;;;;15.10;100.00;99953.69;4934723;29;20023;-80
2022/10/15 08:02:31;;;;;;;34.08;20.60;;;;;;;15.04;100.00;99924.16;4925333;29;20038;-80
2022/10/15 08:04:56;;;;;;;39.33;20.83;;;;;;;15.36;100.00;99949.56;4942208;29;20028;-79
2022/10/15 08:07:24;;;;;;;37.42;21.90;;;;;;;15.56;100.00;99943.41;4932271;29;20083;-84
2022/10/15 08:09:50;;;;;;;39.80;21.73;;;;;;;15.68;100.00;99939.91;4946351;29;20043;-83
2022/10/15 08:12:17;;;;;;;35.10;21.40;;;;;;;15.86;100.00;99949.19;4931910;29;20114;-85
2022/10/15 08:14:45;;;;;;;34.28;20.50;;;;;;;15.79;100.00;99923.81;4933284;29;20031;-85
2022/10/15 08:17:11;;;;;;;36.45;21.50;;;;;;;16.02;100.00;99943.22;4916377;29;20028;-83
2022/10/15 08:19:38;;;;;;;34.42;22.30;;;;;;;16.07;100.00;99935.84;4943467;29;20385;-84
2022/10/15 08:22:04;;;;;;;35.00;22.10;;;;;;;16.17;100.00;99944.91;4930202;29;20042;-83
2022/10/15 08:24:32;;;;;;;37.13;22.55;;;;;;;16.13;100.00;99940.22;4926151;29;20052;-85
2022/10/15 08:27:02;;;;;;;38.75;22.33;;;;;;;16.17;100.00;99947.78;4942464;29;20024;-84
2022/10/15 08:29:30;;;;;;;33.97;21.50;;;;;;;16.25;100.00;99954.53;4940179;29;20031;-82
2022/10/15 08:31:57;;;;;;;31.35;20.85;;;;;;;16.32;100.00;99939.50;4953229;29;20023;-82
2022/10/15 08:34:23;;;;;;;35.58;22.00;;;;;;;16.42;100.00;99944.34;4937837;29;20028;-81
2022/10/15 08:36:49;;;;;;;29.80;20.52;;;;;;;16.44;100.00;99944.59;4933410;29;20066;-83
2022/10/15 08:39:14;;;;;;;33.90;21.70;;;;;;;16.44;100.00;99935.16;4932290;29;20461;-84
2022/10/15 08:41:44;;;;;;;34.75;22.00;;;;;;;16.60;100.00;99960.16;4917806;29;20047;-81
2022/10/15 08:44:31;;;;;;;34.47;22.25;;;;;;;16.61;100.00;99960.94;4927566;29;20024;-79
2022/10/15 08:47:25;;;;;;;34.05;21.25;;;;;;;16.65;100.00;99967.19;4917890;29;20103;-83
2022/10/15 08:49:52;;;;;;;39.47;22.33;;;;;;;16.61;100.00;99979.03;4919878;29;20040;-81
2022/10/15 08:52:25;;;;;;;35.88;21.52;;;;;;;16.50;100.00;99956.06;4917994;29;20024;-80
2022/10/15 08:55:00;;;;;;;38.15;22.60;;;;;;;16.46;100.00;99967.09;4920821;29;20079;-81
2022/10/15 08:57:53;;;;;;;33.65;22.02;;;;;;;16.31;100.00;99961.78;4919596;29;20100;-80
2022/10/15 09:00:46;;;;;;;39.03;22.77;;;;;;;16.19;100.00;99953.81;4922371;29;20367;-77
2022/10/15 09:03:34;;;;;;;36.63;22.05;;;;;;;16.19;100.00;99957.47;4888540;29;20490;-80
2022/10/15 09:06:11;;;;;;;43.22;24.02;;;;;;;16.02;100.00;99951.09;4903260;29;20034;-79
2022/10/15 09:08:55;;;;;;;36.80;22.83;;;;;;;15.99;100.00;99961.59;4919473;29;20106;-83
2022/10/15 09:11:40;;;;;;;36.22;21.33;;;;;;;15.96;100.00;99956.13;4920050;29;20032;-80
2022/10/15 09:14:09;;;;;;;39.65;23.65;;;;;;;15.82;100.00;99945.78;4920155;29;20079;-80
2022/10/15 09:16:38;;;;;;;34.95;21.63;;;;;;;15.80;100.00;99963.63;4887290;29;20032;-79
2022/10/15 09:19:09;;;;;;;36.58;22.48;;;;;;;15.75;100.00;99960.81;4918524;29;20039;-79
2022/10/15 09:21:34;;;;;;;34.25;22.88;;;;;;;15.63;100.00;99958.00;4902598;29;20046;-79
2022/10/15 09:24:20;;;;;;;35.65;22.02;;;;;;;15.68;100.00;99962.16;4902484;29;20056;-80
2022/10/15 09:27:22;;;;;;;31.15;20.17;;;;;;;15.69;100.00;99966.59;4917388;29;20092;-80
2022/10/15 09:29:53;;;;;;;30.38;19.75;;;;;;;15.67;100.00;99961.38;4917670;29;20135;-81
2022/10/15 09:32:42;;;;;;;28.63;16.80;;;;;;;15.77;100.00;99955.25;4917642;29;20415;-80
2022/10/15 09:35:36;;;;;;;25.95;17.48;;;;;;;15.80;100.00;99965.72;4917324;29;20035;-79
2022/10/15 09:38:40;;;;;;;27.23;16.00;;;;;;;15.88;100.00;99970.34;4917717;29;20035;-79
2022/10/15 09:42:03;;;;;;;23.90;15.23;;;;;;;15.92;100.00;99967.97;4887308;29;20036;-79
2022/10/15 09:44:35;;;;;;;25.75;17.00;;;;;;;15.95;100.00;99969.78;4916802;29;20111;-80
2022/10/15 09:47:27;;;;;;;26.33;17.33;;;;;;;15.98;100.00;99967.91;4929059;29;20107;-80
2022/10/15 09:49:58;;;;;;;24.88;14.82;;;;;;;15.98;100.00;99959.25;4926914;29;20047;-79
2022/10/15 09:52:28;;;;;;;25.10;16.05;;;;;;;16.20;100.00;99975.56;4937345;29;20038;-79
2022/10/15 09:55:02;;;;;;;24.92;14.98;;;;;;;16.32;100.00;99977.75;4937828;29;20051;-79
2022/10/15 09:57:29;;;;;;;21.48;15.85;;;;;;;16.47;100.00;99980.22;4937207;29;20035;-80
2022/10/15 10:00:06;;;;;;;22.10;14.50;;;;;;;16.60;100.00;99989.00;4888941;29;20059;-79
2022/10/15 10:02:32;;;;;;;21.00;13.45;;;;;;;16.45;100.00;99959.81;4937023;29;20045;-80
2022/10/15 10:05:27;;;;;;;21.67;14.38;;;;;;;16.61;100.00;99981.13;4937195;29;20027;-80
2022/10/15 10:08:12;;;;;;;20.52;13.60;;;;;;;16.56;100.00;99994.28;4920306;29;20485;-80
2022/10/15 10:10:39;;;;;;;18.83;13.15;;;;;;;16.33;100.00;99969.91;4889950;29;20050;-79
2022/10/15 10:13:17;;;;;;;20.08;14.35;;;;;;;16.41;100.00;99991.03;4919965;29;20031;-78
2022/10/15 10:15:45;;;;;;;20.30;13.73;;;;;;;16.36;100.00;100000.53;4904066;29;20114;-80
2022/10/15 10:18:22;;;;;;;19.83;13.20;;;;;;;16.33;100.00;99996.63;4919766;29;20039;-80
2022/10/15 10:21:02;;;;;;;19.65;13.50;;;;;;;16.31;100.00;99995.59;4920384;29;20038;-80
2022/10/15 10:23:43;;;;;;;18.58;12.95;;;;;;;16.09;100.00;99976.44;4905260;29;20719;-81
2022/10/15 10:26:09;;;;;;;20.48;13.85;;;;;;;16.11;100.00;99979.56;4936896;29;20461;-79
2022/10/15 10:28:55;;;;;;;21.25;13.18;;;;;;;16.17;100.00;99988.16;4904027;29;20078;-80
2022/10/15 10:31:42;;;;;;;21.17;13.25;;;;;;;16.05;100.00;99973.88;4919506;29;20036;-79
2022/10/15 10:34:13;;;;;;;25.00;12.98;;;;;;;16.20;100.00;99992.84;4904542;29;20075;-79
2022/10/15 10:36:39;;;;;;;;;;;;;;;16.17;100.00;99996.78;4904565;29;20031;-79
2022/10/15 10:39:13;;;;;;;21.80;14.32;;;;;;;16.21;100.00;99986.53;4919604;29;20210;-80
2022/10/15 10:42:03;;;;;;;20.73;13.02;;;;;;;16.30;100.00;99989.06;4937070;29;20524;-81
2022/10/15 10:44:46;;;;;;;23.35;14.15;;;;;;;16.41;100.00;99994.69;4919628;29;20469;-79
2022/10/15 10:47:21;;;;;;;19.15;13.80;;;;;;;16.44;100.00;99984.97;4916135;29;20135;-81
2022/10/15 10:49:49;;;;;;;24.73;14.63;;;;;;;16.57;100.00;99990.09;4900919;29;20028;-79
2022/10/15 10:52:30;;;;;;;19.75;13.18;;;;;;;16.69;100.00;99982.88;4915948;29;20024;-79
2022/10/15 10:55:06;;;;;;;23.98;16.08;;;;;;;16.78;100.00;99999.81;4886555;29;20354;-80
2022/10/15 10:57:55;;;;;;;19.75;14.32;;;;;;;16.82;100.00;99994.50;4917395;29;20056;-80
2022/10/15 11:00:32;;;;;;;22.80;15.40;;;;;;;16.82;100.00;99997.38;4916056;29;20426;-79
2022/10/15 11:02:59;;;;;;;23.98;15.60;;;;;;;16.86;100.00;99976.88;4915720;29;20056;-80
2022/10/15 11:05:27;;;;;;;20.48;15.57;;;;;;;16.89;100.00;99975.78;4915838;29;20478;-79
2022/10/15 11:08:03;;;;;;;21.17;15.32;;;;;;;17.04;100.00;99993.44;4916035;29;20489;-80
2022/10/15 11:10:33;;;;;;;24.17;15.10;;;;;;;17.12;100.00;99979.16;4917152;29;20089;-79
2022/10/15 11:13:19;;;;;;;21.70;14.90;;;;;;;17.23;100.00;99976.09;4917117;29;20028;-80
2022/10/15 11:15:45;;;;;;;22.75;15.15;;;;;;;17.34;100.00;99970.91;4918492;29;20115;-79
2022/10/15 11:18:33;;;;;;;23.42;16.50;;;;;;;17.49;100.00;99966.81;4903887;29;20394;-79
2022/10/15 11:21:32;;;;;;;21.52;15.45;;;;;;;17.48;100.00;99957.34;4921407;29;20028;-79
2022/10/15 11:24:33;;;;;;;21.77;15.25;;;;;;;17.70;100.00;99970.63;4920800;29;20469;-80
2022/10/15 11:27:56;;;;;;;22.03;15.97;;;;;;;17.75;100.00;99966.88;4919820;29;20028;-81
2022/10/15 11:30:54;;;;;;;22.92;14.82;;;;;;;17.71;100.00;99961.44;4880996;29;20040;-77
2022/10/15 11:34:03;;;;;;;22.55;15.20;;;;;;;17.60;100.00;99941.38;4925065;29;20112;-79
2022/10/15 11:36:48;;;;;;;20.55;14.40;;;;;;;17.68;100.00;99948.09;4885049;29;20084;-80